Terminal Aerodrome Forecast
Issued by NWS

Home | Current Version | Previous Version | Text Only | Print | Product List | Glossary On
Versions: 1 2 3 4 5 6 7 8 9 10 11 12 13 14 15 16 17 18 19 20 21 22 23 24 25 26 27 28 29 30 31 32 33 34 35
000
FTUS45 KSLC 261509 AAC
TAFLGU
TAF AMD
KLGU 261509Z 2615/2712 00000KT P6SM SCT070
      TEMPO 2615/2617 2SM BR FEW002 BKN070
     FM261700 VRB04KT P6SM SCT070
     FM270300 00000KT P6SM BCFG SCT005=

USA.gov is the U.S. government's official web portal to all federal, state and local government web resources and services.